sensor_id;sensor_type;location;lat;lon;timestamp;pressure;altitude;pressure_sealevel;temperature;humidity
28683;BME280;15862;43.062;25.626;2022-09-09T00:00:21;99966.56;;;19.35;100.00
28683;BME280;15862;43.062;25.626;2022-09-09T00:02:53;99967.56;;;19.26;100.00
28683;BME280;15862;43.062;25.626;2022-09-09T00:05:31;99960.22;;;19.22;100.00
28683;BME280;15862;43.062;25.626;2022-09-09T00:08:00;99975.78;;;19.16;100.00
28683;BME280;15862;43.062;25.626;2022-09-09T00:10:37;99977.06;;;19.04;100.00
28683;BME280;15862;43.062;25.626;2022-09-09T00:13:16;99976.72;;;18.99;100.00
28683;BME280;15862;43.062;25.626;2022-09-09T00:18:48;99987.66;;;18.86;100.00
28683;BME280;15862;43.062;25.626;2022-09-09T00:21:16;99990.94;;;18.80;100.00
28683;BME280;15862;43.062;25.626;2022-09-09T00:23:51;99987.53;;;18.80;100.00
28683;BME280;15862;43.062;25.626;2022-09-09T00:28:48;99983.44;;;18.69;100.00
28683;BME280;15862;43.062;25.626;2022-09-09T00:31:18;99984.88;;;18.64;100.00
28683;BME280;15862;43.062;25.626;2022-09-09T00:33:45;99983.88;;;18.57;100.00
28683;BME280;15862;43.062;25.626;2022-09-09T00:36:15;99983.88;;;18.49;100.00
28683;BME280;15862;43.062;25.626;2022-09-09T00:38:45;99971.59;;;18.49;100.00
28683;BME280;15862;43.062;25.626;2022-09-09T00:41:22;99972.25;;;18.51;100.00
28683;BME280;15862;43.062;25.626;2022-09-09T00:43:53;99968.16;;;18.49;100.00
28683;BME280;15862;43.062;25.626;2022-09-09T00:48:51;99971.31;;;18.60;100.00
28683;BME280;15862;43.062;25.626;2022-09-09T00:51:30;99975.72;;;18.60;100.00
28683;BME280;15862;43.062;25.626;2022-09-09T00:56:30;99961.47;;;18.46;100.00
28683;BME280;15862;43.062;25.626;2022-09-09T00:59:04;99969.97;;;18.41;100.00
28683;BME280;15862;43.062;25.626;2022-09-09T01:01:33;99972.56;;;18.41;100.00
28683;BME280;15862;43.062;25.626;2022-09-09T01:03:58;99956.03;;;18.40;100.00
28683;BME280;15862;43.062;25.626;2022-09-09T01:06:30;99963.25;;;18.38;100.00
28683;BME280;15862;43.062;25.626;2022-09-09T01:09:04;99962.75;;;18.35;100.00
28683;BME280;15862;43.062;25.626;2022-09-09T01:11:37;99965.19;;;18.28;100.00
28683;BME280;15862;43.062;25.626;2022-09-09T01:16:50;99956.38;;;18.37;100.00
28683;BME280;15862;43.062;25.626;2022-09-09T01:19:19;99960.94;;;18.35;100.00
28683;BME280;15862;43.062;25.626;2022-09-09T01:24:30;99964.88;;;18.31;100.00
28683;BME280;15862;43.062;25.626;2022-09-09T01:27:00;99961.75;;;18.28;100.00
28683;BME280;15862;43.062;25.626;2022-09-09T01:29:27;99961.22;;;18.24;100.00
28683;BME280;15862;43.062;25.626;2022-09-09T01:34:18;99965.19;;;18.28;100.00
28683;BME280;15862;43.062;25.626;2022-09-09T01:39:09;99969.19;;;18.15;100.00
28683;BME280;15862;43.062;25.626;2022-09-09T01:41:34;99966.06;;;18.11;100.00
28683;BME280;15862;43.062;25.626;2022-09-09T01:44:00;99962.81;;;18.17;100.00
28683;BME280;15862;43.062;25.626;2022-09-09T01:46:25;99961.13;;;18.34;100.00
28683;BME280;15862;43.062;25.626;2022-09-09T01:48:52;99969.09;;;18.32;100.00
28683;BME280;15862;43.062;25.626;2022-09-09T01:51:18;99971.09;;;18.30;100.00
28683;BME280;15862;43.062;25.626;2022-09-09T01:53:44;99968.78;;;18.27;100.00
28683;BME280;15862;43.062;25.626;2022-09-09T01:56:22;99958.25;;;18.19;100.00
28683;BME280;15862;43.062;25.626;2022-09-09T02:04:21;99964.63;;;18.17;100.00
28683;BME280;15862;43.062;25.626;2022-09-09T02:06:48;99966.56;;;18.15;100.00
28683;BME280;15862;43.062;25.626;2022-09-09T02:09:14;99968.22;;;18.16;100.00
28683;BME280;15862;43.062;25.626;2022-09-09T02:11:44;99964.78;;;18.15;100.00
28683;BME280;15862;43.062;25.626;2022-09-09T02:14:14;99962.81;;;18.09;100.00
28683;BME280;15862;43.062;25.626;2022-09-09T02:16:42;99961.78;;;17.94;100.00
28683;BME280;15862;43.062;25.626;2022-09-09T02:19:23;99956.22;;;17.97;100.00
28683;BME280;15862;43.062;25.626;2022-09-09T02:21:52;99959.47;;;17.91;100.00
28683;BME280;15862;43.062;25.626;2022-09-09T02:24:18;99958.13;;;17.79;100.00
28683;BME280;15862;43.062;25.626;2022-09-09T02:26:44;99965.63;;;17.82;100.00
28683;BME280;15862;43.062;25.626;2022-09-09T02:29:13;99962.38;;;17.80;100.00
28683;BME280;15862;43.062;25.626;2022-09-09T02:31:39;99955.00;;;17.76;100.00
28683;BME280;15862;43.062;25.626;2022-09-09T02:34:06;99955.97;;;17.75;100.00
28683;BME280;15862;43.062;25.626;2022-09-09T02:36:35;99953.16;;;17.68;100.00
28683;BME280;15862;43.062;25.626;2022-09-09T02:39:02;99964.75;;;17.66;100.00
28683;BME280;15862;43.062;25.626;2022-09-09T02:41:35;99960.94;;;17.61;100.00
28683;BME280;15862;43.062;25.626;2022-09-09T02:44:01;99962.44;;;17.63;100.00
28683;BME280;15862;43.062;25.626;2022-09-09T02:49:13;99954.69;;;17.54;100.00
28683;BME280;15862;43.062;25.626;2022-09-09T02:54:28;99950.91;;;17.48;100.00
28683;BME280;15862;43.062;25.626;2022-09-09T02:56:56;99965.72;;;17.40;100.00
28683;BME280;15862;43.062;25.626;2022-09-09T02:59:26;99956.25;;;17.39;100.00
28683;BME280;15862;43.062;25.626;2022-09-09T03:01:51;99958.22;;;17.37;100.00
28683;BME280;15862;43.062;25.626;2022-09-09T03:04:18;99962.78;;;17.35;100.00
28683;BME280;15862;43.062;25.626;2022-09-09T03:06:43;99951.13;;;17.29;100.00
28683;BME280;15862;43.062;25.626;2022-09-09T03:09:09;99956.53;;;17.28;100.00
28683;BME280;15862;43.062;25.626;2022-09-09T03:11:35;99952.22;;;17.27;100.00
28683;BME280;15862;43.062;25.626;2022-09-09T03:14:01;99952.00;;;17.20;100.00
28683;BME280;15862;43.062;25.626;2022-09-09T03:16:26;99949.22;;;17.14;100.00
28683;BME280;15862;43.062;25.626;2022-09-09T03:18:52;99942.63;;;17.10;100.00
28683;BME280;15862;43.062;25.626;2022-09-09T03:21:17;99947.88;;;17.10;100.00
28683;BME280;15862;43.062;25.626;2022-09-09T03:23:43;99930.50;;;17.01;100.00
28683;BME280;15862;43.062;25.626;2022-09-09T03:26:10;99946.91;;;17.11;100.00
28683;BME280;15862;43.062;25.626;2022-09-09T03:28:35;99952.78;;;17.13;100.00
28683;BME280;15862;43.062;25.626;2022-09-09T03:31:01;99949.16;;;17.06;100.00
28683;BME280;15862;43.062;25.626;2022-09-09T03:33:27;99951.38;;;17.01;100.00
28683;BME280;15862;43.062;25.626;2022-09-09T03:35:52;99959.06;;;17.02;100.00
28683;BME280;15862;43.062;25.626;2022-09-09T03:38:18;99957.28;;;17.03;100.00
28683;BME280;15862;43.062;25.626;2022-09-09T03:40:53;99952.22;;;17.01;100.00
28683;BME280;15862;43.062;25.626;2022-09-09T03:43:21;99967.19;;;16.99;100.00
28683;BME280;15862;43.062;25.626;2022-09-09T03:45:46;99966.00;;;16.94;100.00
28683;BME280;15862;43.062;25.626;2022-09-09T03:48:15;99968.63;;;16.94;100.00
28683;BME280;15862;43.062;25.626;2022-09-09T03:50:47;99967.00;;;16.93;100.00
28683;BME280;15862;43.062;25.626;2022-09-09T03:53:13;99964.41;;;16.93;100.00
28683;BME280;15862;43.062;25.626;2022-09-09T03:55:39;99971.16;;;16.86;100.00
28683;BME280;15862;43.062;25.626;2022-09-09T03:58:06;99962.97;;;16.81;100.00
28683;BME280;15862;43.062;25.626;2022-09-09T04:00:32;99970.50;;;16.84;100.00
28683;BME280;15862;43.062;25.626;2022-09-09T04:02:58;99966.09;;;16.84;100.00
28683;BME280;15862;43.062;25.626;2022-09-09T04:05:23;99958.72;;;16.80;100.00
28683;BME280;15862;43.062;25.626;2022-09-09T04:07:48;99965.91;;;16.78;100.00
28683;BME280;15862;43.062;25.626;2022-09-09T04:10:14;99965.94;;;16.86;100.00
28683;BME280;15862;43.062;25.626;2022-09-09T04:12:40;99973.47;;;16.89;100.00
28683;BME280;15862;43.062;25.626;2022-09-09T04:15:06;99969.75;;;16.91;100.00
28683;BME280;15862;43.062;25.626;2022-09-09T04:17:31;99979.75;;;16.96;100.00
28683;BME280;15862;43.062;25.626;2022-09-09T04:19:57;99978.31;;;17.01;100.00
28683;BME280;15862;43.062;25.626;2022-09-09T04:22:23;99977.41;;;17.10;100.00
28683;BME280;15862;43.062;25.626;2022-09-09T04:24:48;99972.38;;;17.17;100.00
28683;BME280;15862;43.062;25.626;2022-09-09T04:27:13;99978.22;;;17.28;100.00
28683;BME280;15862;43.062;25.626;2022-09-09T04:29:38;99974.19;;;17.34;100.00
28683;BME280;15862;43.062;25.626;2022-09-09T04:32:04;99977.53;;;17.44;100.00
28683;BME280;15862;43.062;25.626;2022-09-09T04:34:30;99979.81;;;17.47;100.00
28683;BME280;15862;43.062;25.626;2022-09-09T04:36:56;99980.38;;;17.58;100.00
28683;BME280;15862;43.062;25.626;2022-09-09T04:39:22;99984.50;;;17.68;100.00
28683;BME280;15862;43.062;25.626;2022-09-09T04:41:47;99984.91;;;17.81;100.00
28683;BME280;15862;43.062;25.626;2022-09-09T04:44:12;99993.78;;;17.96;100.00
28683;BME280;15862;43.062;25.626;2022-09-09T04:46:37;99985.97;;;18.04;100.00
28683;BME280;15862;43.062;25.626;2022-09-09T04:49:03;99986.34;;;18.17;100.00
28683;BME280;15862;43.062;25.626;2022-09-09T04:51:28;99989.06;;;18.33;100.00
28683;BME280;15862;43.062;25.626;2022-09-09T04:53:53;99990.06;;;18.48;100.00
28683;BME280;15862;43.062;25.626;2022-09-09T04:56:19;99987.47;;;18.56;100.00
28683;BME280;15862;43.062;25.626;2022-09-09T04:58:44;99987.34;;;18.73;100.00
28683;BME280;15862;43.062;25.626;2022-09-09T05:03:35;99990.47;;;18.93;100.00
28683;BME280;15862;43.062;25.626;2022-09-09T05:06:05;99988.19;;;19.06;100.00
28683;BME280;15862;43.062;25.626;2022-09-09T05:08:30;99991.97;;;19.19;100.00
28683;BME280;15862;43.062;25.626;2022-09-09T05:10:56;99982.31;;;19.19;100.00
28683;BME280;15862;43.062;25.626;2022-09-09T05:13:21;99991.97;;;19.43;100.00
28683;BME280;15862;43.062;25.626;2022-09-09T05:15:54;99983.91;;;19.60;100.00
28683;BME280;15862;43.062;25.626;2022-09-09T05:18:19;99990.75;;;19.69;100.00
28683;BME280;15862;43.062;25.626;2022-09-09T05:20:44;99979.19;;;20.02;100.00
28683;BME280;15862;43.062;25.626;2022-09-09T05:23:09;99974.03;;;20.47;99.42
28683;BME280;15862;43.062;25.626;2022-09-09T05:25:38;99973.25;;;21.28;92.54
28683;BME280;15862;43.062;25.626;2022-09-09T05:28:03;99967.50;;;22.33;81.04
28683;BME280;15862;43.062;25.626;2022-09-09T05:30:29;99972.59;;;23.39;75.94
28683;BME280;15862;43.062;25.626;2022-09-09T05:32:57;99968.53;;;24.51;66.91
28683;BME280;15862;43.062;25.626;2022-09-09T05:35:23;99961.88;;;25.51;60.00
28683;BME280;15862;43.062;25.626;2022-09-09T05:37:48;99974.06;;;26.35;56.25
28683;BME280;15862;43.062;25.626;2022-09-09T05:40:13;99971.56;;;27.14;52.79
28683;BME280;15862;43.062;25.626;2022-09-09T05:42:39;99969.31;;;28.14;49.12
28683;BME280;15862;43.062;25.626;2022-09-09T05:45:05;99959.31;;;28.74;46.44
28683;BME280;15862;43.062;25.626;2022-09-09T05:47:30;99951.94;;;29.51;42.28
28683;BME280;15862;43.062;25.626;2022-09-09T05:49:55;99955.13;;;29.76;42.69
28683;BME280;15862;43.062;25.626;2022-09-09T05:52:21;99945.97;;;30.07;43.05
28683;BME280;15862;43.062;25.626;2022-09-09T05:54:47;99945.66;;;30.75;41.03
28683;BME280;15862;43.062;25.626;2022-09-09T05:57:12;99942.16;;;31.03;40.40
28683;BME280;15862;43.062;25.626;2022-09-09T05:59:38;99952.63;;;31.75;38.10
28683;BME280;15862;43.062;25.626;2022-09-09T06:02:03;99954.28;;;32.02;37.48
28683;BME280;15862;43.062;25.626;2022-09-09T06:04:28;99946.41;;;32.33;35.02
28683;BME280;15862;43.062;25.626;2022-09-09T06:06:55;99949.13;;;33.17;32.96
28683;BME280;15862;43.062;25.626;2022-09-09T06:09:20;99942.50;;;32.98;34.75
28683;BME280;15862;43.062;25.626;2022-09-09T06:11:46;99943.41;;;33.96;32.93
28683;BME280;15862;43.062;25.626;2022-09-09T06:14:11;99945.75;;;34.44;32.10
28683;BME280;15862;43.062;25.626;2022-09-09T06:16:36;99933.91;;;34.40;32.27
28683;BME280;15862;43.062;25.626;2022-09-09T06:19:09;99932.75;;;34.06;32.14
28683;BME280;15862;43.062;25.626;2022-09-09T06:21:35;99925.78;;;34.05;33.10
28683;BME280;15862;43.062;25.626;2022-09-09T06:24:04;99934.53;;;34.87;32.21
28683;BME280;15862;43.062;25.626;2022-09-09T06:26:30;99928.94;;;35.13;30.57
28683;BME280;15862;43.062;25.626;2022-09-09T06:28:56;99919.44;;;35.40;30.36
28683;BME280;15862;43.062;25.626;2022-09-09T06:31:23;99915.41;;;36.21;29.78
28683;BME280;15862;43.062;25.626;2022-09-09T06:33:50;99919.19;;;36.63;29.44
28683;BME280;15862;43.062;25.626;2022-09-09T06:36:16;99926.81;;;37.18;28.90
28683;BME280;15862;43.062;25.626;2022-09-09T06:38:43;99927.41;;;36.81;28.67
28683;BME280;15862;43.062;25.626;2022-09-09T06:41:09;99933.31;;;37.45;27.86
28683;BME280;15862;43.062;25.626;2022-09-09T06:43:34;99931.94;;;36.91;28.72
28683;BME280;15862;43.062;25.626;2022-09-09T06:46:07;99933.78;;;36.95;27.53
28683;BME280;15862;43.062;25.626;2022-09-09T06:48:33;99928.66;;;37.79;27.94
28683;BME280;15862;43.062;25.626;2022-09-09T06:51:03;99927.84;;;38.38;26.89
28683;BME280;15862;43.062;25.626;2022-09-09T06:53:30;99922.78;;;39.19;26.15
28683;BME280;15862;43.062;25.626;2022-09-09T06:55:59;99917.16;;;39.61;25.63
28683;BME280;15862;43.062;25.626;2022-09-09T06:58:26;99916.47;;;40.44;24.45
28683;BME280;15862;43.062;25.626;2022-09-09T07:00:51;99913.56;;;40.27;24.72
28683;BME280;15862;43.062;25.626;2022-09-09T07:03:16;99909.22;;;40.97;24.25
28683;BME280;15862;43.062;25.626;2022-09-09T07:05:42;99917.19;;;41.24;24.32
28683;BME280;15862;43.062;25.626;2022-09-09T07:08:09;99910.28;;;41.95;23.05
28683;BME280;15862;43.062;25.626;2022-09-09T07:10:35;99911.84;;;41.41;22.91
28683;BME280;15862;43.062;25.626;2022-09-09T07:13:00;99903.34;;;40.24;24.25
28683;BME280;15862;43.062;25.626;2022-09-09T07:15:27;99905.63;;;40.44;24.08
28683;BME280;15862;43.062;25.626;2022-09-09T07:17:52;99900.59;;;40.73;23.32
28683;BME280;15862;43.062;25.626;2022-09-09T07:20:18;99907.59;;;41.18;23.28
28683;BME280;15862;43.062;25.626;2022-09-09T07:22:44;99906.66;;;41.53;22.84
28683;BME280;15862;43.062;25.626;2022-09-09T07:25:10;99906.53;;;41.66;22.79
28683;BME280;15862;43.062;25.626;2022-09-09T07:27:35;99905.50;;;41.92;22.31
28683;BME280;15862;43.062;25.626;2022-09-09T07:30:00;99896.53;;;41.92;22.98
28683;BME280;15862;43.062;25.626;2022-09-09T07:32:27;99891.66;;;41.25;23.65
28683;BME280;15862;43.062;25.626;2022-09-09T07:34:52;99894.13;;;41.82;23.33
28683;BME280;15862;43.062;25.626;2022-09-09T07:37:18;99905.41;;;42.65;22.52
28683;BME280;15862;43.062;25.626;2022-09-09T07:39:44;99900.06;;;43.11;21.52
28683;BME280;15862;43.062;25.626;2022-09-09T07:42:09;99894.59;;;43.19;21.88
28683;BME280;15862;43.062;25.626;2022-09-09T07:44:36;99888.88;;;43.41;21.26
28683;BME280;15862;43.062;25.626;2022-09-09T07:47:02;99894.66;;;43.48;21.31
28683;BME280;15862;43.062;25.626;2022-09-09T07:49:27;99886.31;;;44.02;20.39
28683;BME280;15862;43.062;25.626;2022-09-09T07:51:53;99883.66;;;43.65;20.76
28683;BME280;15862;43.062;25.626;2022-09-09T07:54:19;99892.03;;;43.89;20.90
28683;BME280;15862;43.062;25.626;2022-09-09T07:56:48;99887.66;;;43.96;21.17
28683;BME280;15862;43.062;25.626;2022-09-09T07:59:14;99894.66;;;42.94;21.51
28683;BME280;15862;43.062;25.626;2022-09-09T08:01:41;99886.88;;;43.21;20.78
28683;BME280;15862;43.062;25.626;2022-09-09T08:04:08;99892.94;;;42.38;21.23
28683;BME280;15862;43.062;25.626;2022-09-09T08:06:35;99874.53;;;42.19;21.44
28683;BME280;15862;43.062;25.626;2022-09-09T08:09:02;99893.91;;;42.34;21.71
28683;BME280;15862;43.062;25.626;2022-09-09T08:11:28;99884.88;;;42.08;21.54
28683;BME280;15862;43.062;25.626;2022-09-09T08:13:54;99888.13;;;40.72;22.30
28683;BME280;15862;43.062;25.626;2022-09-09T08:16:20;99889.56;;;39.72;23.56
28683;BME280;15862;43.062;25.626;2022-09-09T08:18:50;99886.19;;;38.63;24.73
28683;BME280;15862;43.062;25.626;2022-09-09T08:21:20;99873.22;;;39.37;24.24
28683;BME280;15862;43.062;25.626;2022-09-09T08:23:46;99874.00;;;38.79;24.76
28683;BME280;15862;43.062;25.626;2022-09-09T08:28:47;99858.28;;;39.93;23.89
28683;BME280;15862;43.062;25.626;2022-09-09T08:31:17;99866.19;;;40.82;22.79
28683;BME280;15862;43.062;25.626;2022-09-09T08:33:43;99860.41;;;41.05;22.43
28683;BME280;15862;43.062;25.626;2022-09-09T08:36:12;99846.13;;;39.91;23.44
28683;BME280;15862;43.062;25.626;2022-09-09T08:38:37;99837.13;;;40.61;23.07
28683;BME280;15862;43.062;25.626;2022-09-09T08:41:10;99839.50;;;40.75;23.39
28683;BME280;15862;43.062;25.626;2022-09-09T08:43:35;99844.22;;;40.26;23.47
28683;BME280;15862;43.062;25.626;2022-09-09T08:46:11;99839.75;;;39.60;23.47
28683;BME280;15862;43.062;25.626;2022-09-09T08:51:17;99851.25;;;39.65;24.16
28683;BME280;15862;43.062;25.626;2022-09-09T08:53:44;99842.84;;;40.51;23.24
28683;BME280;15862;43.062;25.626;2022-09-09T08:56:12;99843.94;;;41.02;22.86
28683;BME280;15862;43.062;25.626;2022-09-09T08:58:52;99839.44;;;39.61;23.80
28683;BME280;15862;43.062;25.626;2022-09-09T09:04:13;99833.16;;;38.12;25.93
28683;BME280;15862;43.062;25.626;2022-09-09T09:11:46;99825.88;;;37.94;25.66
28683;BME280;15862;43.062;25.626;2022-09-09T09:14:20;99828.78;;;39.11;24.99
28683;BME280;15862;43.062;25.626;2022-09-09T09:16:58;99821.56;;;39.74;24.65
28683;BME280;15862;43.062;25.626;2022-09-09T09:19:25;99820.63;;;40.27;24.33
28683;BME280;15862;43.062;25.626;2022-09-09T09:24:35;99820.09;;;39.14;24.82
28683;BME280;15862;43.062;25.626;2022-09-09T09:27:12;99824.41;;;39.15;24.90
28683;BME280;15862;43.062;25.626;2022-09-09T09:29:38;99828.97;;;39.01;25.22
28683;BME280;15862;43.062;25.626;2022-09-09T09:32:04;99818.53;;;38.95;24.98
28683;BME280;15862;43.062;25.626;2022-09-09T09:34:30;99816.94;;;38.94;25.42
28683;BME280;15862;43.062;25.626;2022-09-09T09:36:55;99814.13;;;38.85;25.23
28683;BME280;15862;43.062;25.626;2022-09-09T09:39:25;99823.69;;;38.64;25.62
28683;BME280;15862;43.062;25.626;2022-09-09T09:41:51;99819.53;;;39.92;24.39
28683;BME280;15862;43.062;25.626;2022-09-09T09:46:50;99807.72;;;39.75;24.60
28683;BME280;15862;43.062;25.626;2022-09-09T09:49:15;99808.50;;;38.82;25.17
28683;BME280;15862;43.062;25.626;2022-09-09T09:51:40;99800.75;;;39.47;25.07
28683;BME280;15862;43.062;25.626;2022-09-09T09:54:21;99790.91;;;39.65;24.42
28683;BME280;15862;43.062;25.626;2022-09-09T09:56:48;99799.16;;;39.60;24.36
28683;BME280;15862;43.062;25.626;2022-09-09T09:59:20;99796.28;;;40.13;23.86
28683;BME280;15862;43.062;25.626;2022-09-09T10:01:46;99798.88;;;41.23;23.60
28683;BME280;15862;43.062;25.626;2022-09-09T10:04:19;99798.94;;;40.71;23.37
28683;BME280;15862;43.062;25.626;2022-09-09T10:06:45;99799.44;;;40.51;24.14
28683;BME280;15862;43.062;25.626;2022-09-09T10:09:28;99791.84;;;39.82;24.65
28683;BME280;15862;43.062;25.626;2022-09-09T10:17:09;99790.81;;;40.05;24.67
28683;BME280;15862;43.062;25.626;2022-09-09T10:19:38;99794.66;;;40.12;24.54
28683;BME280;15862;43.062;25.626;2022-09-09T10:30:10;99789.16;;;40.17;24.52
28683;BME280;15862;43.062;25.626;2022-09-09T10:35:10;99793.09;;;40.77;23.61
28683;BME280;15862;43.062;25.626;2022-09-09T10:42:44;99775.25;;;40.63;24.09
28683;BME280;15862;43.062;25.626;2022-09-09T10:45:23;99777.19;;;40.62;24.14
28683;BME280;15862;43.062;25.626;2022-09-09T10:48:08;99772.72;;;41.27;23.93
28683;BME280;15862;43.062;25.626;2022-09-09T10:55:35;99767.59;;;40.34;24.45
28683;BME280;15862;43.062;25.626;2022-09-09T10:58:02;99768.34;;;40.26;24.78
28683;BME280;15862;43.062;25.626;2022-09-09T11:03:01;99765.22;;;40.63;24.17
28683;BME280;15862;43.062;25.626;2022-09-09T11:05:29;99767.63;;;40.65;24.37
28683;BME280;15862;43.062;25.626;2022-09-09T11:08:04;99759.94;;;40.58;24.36
28683;BME280;15862;43.062;25.626;2022-09-09T11:13:01;99754.09;;;41.84;23.20
28683;BME280;15862;43.062;25.626;2022-09-09T11:15:36;99762.44;;;42.13;22.81
28683;BME280;15862;43.062;25.626;2022-09-09T11:18:04;99759.88;;;42.88;22.62
28683;BME280;15862;43.062;25.626;2022-09-09T11:20:31;99757.03;;;42.76;22.54
28683;BME280;15862;43.062;25.626;2022-09-09T11:23:02;99754.59;;;42.03;22.97
28683;BME280;15862;43.062;25.626;2022-09-09T11:25:31;99760.28;;;41.43;23.52
28683;BME280;15862;43.062;25.626;2022-09-09T11:37:55;99731.47;;;39.33;25.87
28683;BME280;15862;43.062;25.626;2022-09-09T11:40:27;99733.38;;;39.81;25.46
28683;BME280;15862;43.062;25.626;2022-09-09T11:43:09;99737.19;;;39.80;24.97
28683;BME280;15862;43.062;25.626;2022-09-09T11:45:37;99729.31;;;37.49;27.02
28683;BME280;15862;43.062;25.626;2022-09-09T11:48:03;99718.53;;;35.46;29.92
28683;BME280;15862;43.062;25.626;2022-09-09T11:50:33;99711.78;;;34.85;30.43
28683;BME280;15862;43.062;25.626;2022-09-09T11:53:15;99706.38;;;34.95;30.86
28683;BME280;15862;43.062;25.626;2022-09-09T11:55:42;99706.16;;;36.55;29.45
28683;BME280;15862;43.062;25.626;2022-09-09T12:00:40;99706.78;;;38.72;26.56
28683;BME280;15862;43.062;25.626;2022-09-09T12:03:50;99701.22;;;39.31;26.14
28683;BME280;15862;43.062;25.626;2022-09-09T12:05:55;99700.00;;;39.37;25.64
28683;BME280;15862;43.062;25.626;2022-09-09T12:08:27;99696.25;;;39.60;25.41
28683;BME280;15862;43.062;25.626;2022-09-09T12:10:57;99696.16;;;40.08;25.34
28683;BME280;15862;43.062;25.626;2022-09-09T12:13:24;99689.94;;;39.86;25.29
28683;BME280;15862;43.062;25.626;2022-09-09T12:15:57;99684.75;;;39.41;26.01
28683;BME280;15862;43.062;25.626;2022-09-09T12:18:24;99686.66;;;40.80;24.67
28683;BME280;15862;43.062;25.626;2022-09-09T12:21:14;99686.97;;;41.43;23.79
28683;BME280;15862;43.062;25.626;2022-09-09T12:23:37;99672.72;;;41.29;24.29
28683;BME280;15862;43.062;25.626;2022-09-09T12:33:37;99663.81;;;41.20;23.92
28683;BME280;15862;43.062;25.626;2022-09-09T12:36:05;99660.44;;;41.48;23.50
28683;BME280;15862;43.062;25.626;2022-09-09T12:38:38;99657.59;;;41.28;24.09
28683;BME280;15862;43.062;25.626;2022-09-09T12:41:05;99655.97;;;41.35;23.64
28683;BME280;15862;43.062;25.626;2022-09-09T12:43:31;99656.88;;;39.05;25.95
28683;BME280;15862;43.062;25.626;2022-09-09T12:46:01;99655.34;;;37.13;28.35
28683;BME280;15862;43.062;25.626;2022-09-09T12:48:41;99652.16;;;36.41;28.72
28683;BME280;15862;43.062;25.626;2022-09-09T12:51:28;99652.13;;;35.80;29.36
28683;BME280;15862;43.062;25.626;2022-09-09T12:53:52;99653.94;;;35.08;31.04
28683;BME280;15862;43.062;25.626;2022-09-09T12:56:19;99653.06;;;34.59;31.68
28683;BME280;15862;43.062;25.626;2022-09-09T12:58:46;99628.38;;;34.32;31.97
28683;BME280;15862;43.062;25.626;2022-09-09T13:01:20;99641.31;;;33.85;32.92
28683;BME280;15862;43.062;25.626;2022-09-09T13:03:46;99645.59;;;33.61;33.35
28683;BME280;15862;43.062;25.626;2022-09-09T13:06:33;99649.06;;;33.52;33.27
28683;BME280;15862;43.062;25.626;2022-09-09T13:08:59;99647.72;;;33.54;33.78
28683;BME280;15862;43.062;25.626;2022-09-09T13:13:51;99653.84;;;33.35;34.24
28683;BME280;15862;43.062;25.626;2022-09-09T13:18:55;99659.38;;;33.04;34.63
28683;BME280;15862;43.062;25.626;2022-09-09T13:21:30;99651.38;;;33.09;34.82
28683;BME280;15862;43.062;25.626;2022-09-09T13:23:56;99654.28;;;33.02;34.72
28683;BME280;15862;43.062;25.626;2022-09-09T13:28:46;99656.94;;;32.46;36.18
28683;BME280;15862;43.062;25.626;2022-09-09T13:31:23;99661.44;;;32.36;36.32
28683;BME280;15862;43.062;25.626;2022-09-09T13:33:49;99664.91;;;32.36;36.04
28683;BME280;15862;43.062;25.626;2022-09-09T13:36:14;99660.44;;;32.10;36.95
28683;BME280;15862;43.062;25.626;2022-09-09T13:41:11;99663.44;;;31.87;37.56
28683;BME280;15862;43.062;25.626;2022-09-09T13:43:46;99658.78;;;31.73;37.71
28683;BME280;15862;43.062;25.626;2022-09-09T13:46:48;99662.63;;;31.56;38.04
28683;BME280;15862;43.062;25.626;2022-09-09T13:54:05;99663.00;;;31.43;39.08
28683;BME280;15862;43.062;25.626;2022-09-09T13:56:34;99658.22;;;31.45;38.74
28683;BME280;15862;43.062;25.626;2022-09-09T13:59:00;99662.75;;;31.44;39.45
28683;BME280;15862;43.062;25.626;2022-09-09T14:01:25;99652.75;;;31.56;38.98
28683;BME280;15862;43.062;25.626;2022-09-09T14:03:52;99651.53;;;31.69;38.53
28683;BME280;15862;43.062;25.626;2022-09-09T14:06:18;99659.63;;;32.10;37.87
28683;BME280;15862;43.062;25.626;2022-09-09T14:08:43;99668.06;;;32.28;38.44
28683;BME280;15862;43.062;25.626;2022-09-09T14:11:11;99660.75;;;32.55;37.83
28683;BME280;15862;43.062;25.626;2022-09-09T14:13:37;99651.72;;;32.66;37.62
28683;BME280;15862;43.062;25.626;2022-09-09T14:16:02;99650.72;;;32.82;37.18
28683;BME280;15862;43.062;25.626;2022-09-09T14:18:27;99653.69;;;32.90;37.13
28683;BME280;15862;43.062;25.626;2022-09-09T14:20:53;99647.03;;;32.98;37.74
28683;BME280;15862;43.062;25.626;2022-09-09T14:23:19;99649.72;;;32.98;36.87
28683;BME280;15862;43.062;25.626;2022-09-09T14:25:44;99655.56;;;32.95;37.19
28683;BME280;15862;43.062;25.626;2022-09-09T14:28:10;99651.72;;;32.66;37.52
28683;BME280;15862;43.062;25.626;2022-09-09T14:30:37;99655.69;;;32.17;37.93
28683;BME280;15862;43.062;25.626;2022-09-09T14:33:02;99647.91;;;31.84;38.54
28683;BME280;15862;43.062;25.626;2022-09-09T14:35:27;99650.44;;;31.70;39.00
28683;BME280;15862;43.062;25.626;2022-09-09T14:37:53;99647.75;;;31.43;39.72
28683;BME280;15862;43.062;25.626;2022-09-09T14:40:18;99649.00;;;31.31;39.87
28683;BME280;15862;43.062;25.626;2022-09-09T14:42:43;99648.75;;;31.32;41.81
28683;BME280;15862;43.062;25.626;2022-09-09T14:45:09;99654.03;;;31.27;41.52
28683;BME280;15862;43.062;25.626;2022-09-09T14:47:35;99657.91;;;31.15;43.42